createdAt,value
2019-05-07T00:01:57.481Z,4.97
2019-05-07T00:05:02.651Z,5.00
2019-05-07T00:08:06.579Z,4.71
2019-05-07T00:11:12.226Z,4.73
2019-05-07T00:14:15.787Z,4.63
2019-05-07T00:17:19.807Z,4.75
2019-05-07T00:20:23.844Z,4.53
2019-05-07T00:23:27.560Z,4.68
2019-05-07T00:26:32.034Z,4.55
2019-05-07T00:29:36.194Z,4.36
2019-05-07T00:32:39.895Z,4.52
2019-05-07T00:36:02.722Z,4.23
2019-05-07T00:39:17.267Z,4.34
2019-05-07T00:42:26.240Z,4.58
2019-05-07T00:45:37.513Z,4.44
2019-05-07T00:48:42.305Z,4.44
2019-05-07T00:51:46.157Z,4.45
2019-05-07T00:54:49.858Z,4.45
2019-05-07T00:57:53.556Z,4.39
2019-05-07T01:00:57.255Z,4.31
2019-05-07T01:04:02.676Z,4.34
2019-05-07T01:07:06.543Z,4.32
2019-05-07T01:10:12.681Z,4.34
2019-05-07T01:13:16.191Z,4.38
2019-05-07T01:16:22.053Z,4.47
2019-05-07T01:19:25.458Z,4.33
2019-05-07T01:22:29.220Z,4.24
2019-05-07T01:25:33.024Z,4.21
2019-05-07T01:28:54.354Z,4.14
2019-05-07T01:32:12.769Z,4.06
2019-05-07T01:35:22.531Z,4.12
2019-05-07T01:38:26.601Z,4.11
2019-05-07T01:41:32.557Z,4.06
2019-05-07T01:44:35.818Z,3.98
2019-05-07T01:47:39.505Z,3.92
2019-05-07T01:50:43.214Z,3.90
2019-05-07T01:53:46.901Z,3.83
2019-05-07T01:56:52.184Z,3.87
2019-05-07T01:59:56.034Z,3.80
2019-05-07T02:03:06.663Z,3.83
2019-05-07T02:06:22.154Z,3.83
2019-05-07T02:09:42.471Z,3.70
2019-05-07T02:12:46.255Z,3.69
2019-05-07T02:15:58.486Z,3.67
2019-05-07T02:18:55.398Z,3.60
2019-05-07T02:21:59.095Z,3.65
2019-05-07T02:25:03.370Z,3.55
2019-05-07T02:28:07.616Z,3.59
2019-05-07T02:31:14.593Z,3.57
2019-05-07T02:34:16.766Z,3.53
2019-05-07T02:37:27.412Z,3.62
2019-05-07T02:40:44.570Z,3.60
2019-05-07T02:43:48.277Z,3.51
2019-05-07T02:47:13.995Z,3.52
2019-05-07T02:50:32.725Z,3.45
2019-05-07T02:53:48.283Z,3.53
2019-05-07T02:56:53.367Z,3.47
2019-05-07T02:59:57.207Z,3.56
2019-05-07T03:03:03.966Z,3.67
2019-05-07T03:06:06.733Z,3.60
2019-05-07T03:09:14.087Z,3.74
2019-05-07T03:12:16.120Z,3.80
2019-05-07T03:15:20.333Z,3.92
2019-05-07T03:18:24.517Z,3.74
2019-05-07T03:21:47.245Z,3.76
2019-05-07T03:25:03.322Z,3.59
2019-05-07T03:28:06.972Z,3.59
2019-05-07T03:31:17.355Z,3.62
2019-05-07T03:34:46.537Z,3.65
2019-05-07T03:37:48.666Z,3.73
2019-05-07T03:40:53.254Z,3.63
2019-05-07T03:43:58.835Z,3.62
2019-05-07T03:47:23.565Z,3.78
2019-05-07T03:50:26.192Z,3.79
2019-05-07T03:53:29.904Z,3.88
2019-05-07T03:56:34.018Z,3.70
2019-05-07T03:59:37.725Z,3.82
2019-05-07T04:02:43.714Z,3.99
2019-05-07T04:05:46.944Z,3.89
2019-05-07T04:08:53.198Z,3.84
2019-05-07T04:11:56.133Z,3.95
2019-05-07T04:15:03.063Z,4.01
2019-05-07T04:18:05.359Z,3.95
2019-05-07T04:21:09.123Z,4.06
2019-05-07T04:24:23.526Z,3.98
2019-05-07T04:27:46.690Z,4.03
2019-05-07T04:30:48.511Z,3.87
2019-05-07T04:33:53.368Z,4.16
2019-05-07T04:36:57.250Z,4.30
2019-05-07T04:40:03.204Z,4.15
2019-05-07T04:43:06.625Z,4.25
2019-05-07T04:46:14.086Z,4.29
2019-05-07T04:49:16.041Z,4.23
2019-05-07T04:52:26.555Z,4.20
2019-05-07T04:55:33.186Z,4.17
2019-05-07T04:58:35.688Z,4.21
2019-05-07T05:01:43.781Z,4.23
2019-05-07T05:04:47.502Z,4.42
2019-05-07T05:07:53.387Z,4.50
2019-05-07T05:10:56.638Z,4.62
2019-05-07T05:14:02.791Z,4.69
2019-05-07T05:17:05.841Z,4.79
2019-05-07T05:20:10.226Z,4.63
2019-05-07T05:23:22.732Z,4.71
2019-05-07T05:26:26.845Z,4.75
2019-05-07T05:29:32.276Z,4.99
2019-05-07T05:32:36.115Z,4.89
2019-05-07T05:35:39.821Z,4.88
2019-05-07T05:38:43.518Z,4.89
2019-05-07T05:41:51.704Z,5.07
2019-05-07T05:44:54.874Z,5.27
2019-05-07T05:48:04.570Z,5.46
2019-05-07T05:51:23.046Z,5.36
2019-05-07T05:54:32.964Z,5.50
2019-05-07T05:57:56.033Z,5.65
2019-05-07T06:01:19.459Z,5.72
2019-05-07T06:04:30.069Z,5.75
2019-05-07T06:07:38.294Z,5.93
2019-05-07T06:10:51.977Z,5.91
2019-05-07T06:14:02.304Z,5.88
2019-05-07T06:17:32.063Z,6.23
2019-05-07T06:20:56.644Z,6.31
2019-05-07T06:24:02.327Z,6.47
2019-05-07T06:27:06.786Z,6.68
2019-05-07T06:30:12.124Z,6.66
2019-05-07T06:33:15.915Z,6.76
2019-05-07T06:36:21.858Z,6.72
2019-05-07T06:39:28.202Z,6.87
2019-05-07T06:42:57.630Z,7.15
2019-05-07T06:46:01.985Z,7.09
2019-05-07T06:49:05.801Z,7.08
2019-05-07T06:52:09.518Z,7.22
2019-05-07T06:55:14.643Z,7.32
2019-05-07T06:58:18.369Z,7.44
2019-05-07T07:01:34.184Z,7.66
2019-05-07T07:05:02.688Z,7.87
2019-05-07T07:08:12.514Z,8.01
2019-05-07T07:11:24.936Z,8.16
2019-05-07T07:14:28.637Z,8.23
2019-05-07T07:17:32.882Z,8.18
2019-05-07T07:20:37.179Z,8.30
2019-05-07T07:23:42.915Z,8.42
2019-05-07T07:26:46.339Z,8.40
2019-05-07T07:30:12.802Z,8.31
2019-05-07T07:33:17.276Z,8.49
2019-05-07T07:36:22.742Z,8.91
2019-05-07T07:39:26.760Z,8.85
2019-05-07T07:42:31.970Z,9.01
2019-05-07T07:45:35.950Z,9.09
2019-05-07T07:48:39.657Z,8.90
2019-05-07T07:51:45.750Z,8.98
2019-05-07T07:54:48.851Z,9.09
2019-05-07T07:58:02.593Z,9.26
2019-05-07T08:01:25.258Z,9.48
2019-05-07T08:04:28.970Z,9.44
2019-05-07T08:07:33.139Z,9.14
2019-05-07T08:10:37.253Z,9.47
2019-05-07T08:13:42.503Z,9.65
2019-05-07T08:16:46.324Z,9.95
2019-05-07T08:19:51.986Z,10.10
2019-05-07T08:22:55.865Z,9.94
2019-05-07T08:26:02.390Z,9.83
2019-05-07T08:29:05.583Z,9.88
2019-05-07T08:32:28.617Z,10.10
2019-05-07T08:35:42.081Z,10.08
2019-05-07T08:38:52.439Z,10.40
2019-05-07T08:41:55.622Z,10.15
2019-05-07T08:45:24.936Z,10.19
2019-05-07T08:48:36.200Z,10.20
2019-05-07T08:51:39.992Z,9.96
2019-05-07T08:54:43.729Z,10.39
2019-05-07T08:57:47.531Z,10.59
2019-05-07T09:00:52.304Z,10.45
2019-05-07T09:03:56.156Z,10.06
2019-05-07T09:07:00.023Z,10.00
2019-05-07T09:10:03.799Z,10.21
2019-05-07T09:13:07.513Z,10.23
2019-05-07T09:16:12.927Z,10.02
2019-05-07T09:19:17.367Z,10.37
2019-05-07T09:22:23.050Z,10.66
2019-05-07T09:25:26.650Z,10.71
2019-05-07T09:28:52.336Z,10.82
2019-05-07T09:32:17.614Z,11.18
2019-05-07T09:35:29.150Z,11.27
2019-05-07T09:38:32.960Z,11.04
2019-05-07T09:41:36.758Z,11.09
2019-05-07T09:44:42.370Z,11.31
2019-05-07T09:47:46.000Z,11.07
2019-05-07T09:50:49.709Z,10.80
2019-05-07T09:53:53.737Z,10.61
2019-05-07T09:56:57.445Z,10.47
2019-05-07T10:00:02.242Z,11.07
2019-05-07T10:03:06.512Z,11.19
2019-05-07T10:06:12.317Z,11.87
2019-05-07T10:09:16.135Z,12.26
2019-05-07T10:12:26.567Z,12.32
2019-05-07T10:15:30.446Z,12.38
2019-05-07T10:18:34.245Z,12.78
2019-05-07T10:21:38.033Z,12.47
2019-05-07T10:24:42.023Z,11.64
2019-05-07T10:27:46.025Z,11.32
2019-05-07T10:30:52.092Z,11.09
2019-05-07T10:33:55.951Z,13.17
2019-05-07T10:36:59.807Z,14.72
2019-05-07T10:40:03.687Z,16.24
2019-05-07T10:43:07.415Z,14.54
2019-05-07T10:46:29.061Z,13.28
2019-05-07T10:49:38.955Z,14.71
2019-05-07T10:52:42.849Z,17.78
2019-05-07T10:55:46.635Z,16.86
2019-05-07T10:58:52.209Z,16.72
2019-05-07T11:02:05.421Z,18.52
2019-05-07T11:05:09.601Z,18.95
2019-05-07T11:08:13.471Z,18.71
2019-05-07T11:11:17.357Z,20.97
2019-05-07T11:14:21.714Z,20.88
2019-05-07T11:17:33.264Z,20.54
2019-05-07T11:20:49.114Z,20.84
2019-05-07T11:23:42.902Z,17.12
2019-05-07T11:26:46.717Z,18.53
2019-05-07T11:29:50.439Z,20.35
2019-05-07T11:32:54.154Z,19.98
2019-05-07T11:35:57.882Z,20.32
2019-05-07T11:39:01.865Z,21.02
2019-05-07T11:42:17.969Z,17.44
2019-05-07T11:45:28.273Z,16.43
2019-05-07T11:48:47.526Z,16.78
2019-05-07T11:51:56.384Z,19.16
2019-05-07T11:55:00.093Z,20.83
2019-05-07T11:58:04.197Z,19.68
2019-05-07T12:01:13.939Z,20.05
2019-05-07T12:04:17.810Z,20.06
2019-05-07T12:07:22.365Z,21.21
2019-05-07T12:10:26.295Z,21.33
2019-05-07T12:13:32.099Z,21.02
2019-05-07T12:16:35.530Z,20.59
2019-05-07T12:19:39.274Z,20.80
2019-05-07T12:22:48.862Z,20.55
2019-05-07T12:25:52.980Z,20.79
2019-05-07T12:28:56.766Z,19.89
2019-05-07T12:32:23.984Z,21.33
2019-05-07T12:35:27.698Z,20.80
2019-05-07T12:38:32.379Z,18.79
2019-05-07T12:41:36.182Z,17.28
2019-05-07T12:44:42.355Z,16.60
2019-05-07T12:47:45.738Z,15.45
2019-05-07T12:50:49.525Z,15.23
2019-05-07T12:54:04.688Z,15.04
2019-05-07T12:57:08.503Z,15.35
2019-05-07T13:00:32.334Z,16.75
2019-05-07T13:03:43.194Z,17.80
2019-05-07T13:06:53.848Z,16.37
2019-05-07T13:09:57.566Z,15.69
2019-05-07T13:13:02.214Z,15.31
2019-05-07T13:16:06.162Z,14.93
2019-05-07T13:19:09.897Z,14.56
2019-05-07T13:22:13.689Z,14.76
2019-05-07T13:25:17.680Z,14.65
2019-05-07T13:28:21.487Z,15.05
2019-05-07T13:31:27.631Z,15.67
2019-05-07T13:34:33.800Z,16.24
2019-05-07T13:37:41.788Z,16.53
2019-05-07T13:41:22.992Z,16.58
2019-05-07T13:44:39.316Z,16.66
2019-05-07T13:47:43.571Z,16.70
2019-05-07T13:50:47.470Z,15.31
2019-05-07T13:53:52.828Z,15.04
2019-05-07T13:56:56.651Z,14.08
2019-05-07T14:00:02.415Z,14.08
2019-05-07T14:03:06.164Z,14.05
2019-05-07T14:06:12.654Z,13.93
2019-05-07T14:09:23.848Z,13.84
2019-05-07T14:12:26.955Z,13.70
2019-05-07T14:15:32.529Z,13.01
2019-05-07T14:18:37.737Z,13.18
2019-05-07T14:21:42.195Z,13.28
2019-05-07T14:24:46.140Z,13.35
2019-05-07T14:27:49.855Z,13.54
2019-05-07T14:30:53.595Z,13.67
2019-05-07T14:34:22.533Z,13.71
2019-05-07T14:37:32.498Z,13.73
2019-05-07T14:40:36.348Z,13.67
2019-05-07T14:43:46.930Z,13.33
2019-05-07T14:46:54.329Z,13.16
2019-05-07T15:10:52.322Z,13.33
2019-05-07T15:13:55.998Z,13.22
2019-05-07T15:17:06.274Z,13.02
2019-05-07T15:20:10.250Z,12.87
2019-05-07T15:23:22.577Z,12.92
2019-05-07T15:26:26.663Z,12.67
2019-05-07T15:29:31.864Z,12.50
2019-05-07T15:32:35.889Z,12.32
2019-05-07T15:35:39.667Z,12.25
2019-05-07T15:38:43.541Z,12.16
2019-05-07T15:41:47.263Z,12.28
2019-05-07T15:44:52.813Z,12.45
2019-05-07T15:47:58.068Z,12.61
2019-05-07T15:51:02.030Z,12.53
2019-05-07T15:54:06.017Z,12.60
2019-05-07T15:57:12.653Z,12.44
2019-05-07T16:00:19.060Z,12.21
2019-05-07T16:03:28.392Z,12.07
2019-05-07T16:06:32.506Z,12.08
2019-05-07T16:09:45.069Z,12.35
2019-05-07T16:12:49.468Z,12.21
2019-05-07T16:15:53.347Z,12.17
2019-05-07T16:19:12.250Z,12.35
2019-05-07T16:22:22.593Z,12.14
2019-05-07T16:25:26.310Z,12.17
2019-05-07T16:28:30.010Z,12.47
2019-05-07T16:31:33.734Z,12.52
2019-05-07T16:34:37.541Z,12.42
2019-05-07T16:37:42.822Z,12.48
2019-05-07T16:40:46.737Z,12.53
2019-05-07T16:43:52.283Z,12.43
2019-05-07T16:46:55.928Z,12.48
2019-05-07T16:49:59.656Z,12.37
2019-05-07T16:53:03.386Z,12.39
2019-05-07T16:56:07.166Z,12.27
2019-05-07T16:59:12.585Z,12.20
2019-05-07T17:02:21.427Z,12.22
2019-05-07T17:05:25.141Z,12.26
2019-05-07T17:08:42.384Z,12.15
2019-05-07T17:11:46.686Z,12.08
2019-05-07T17:14:51.796Z,11.94
2019-05-07T17:18:02.729Z,11.90
2019-05-07T17:21:06.784Z,11.96
2019-05-07T17:24:11.966Z,11.83
2019-05-07T17:27:15.832Z,11.56
2019-05-07T17:30:19.621Z,11.81
2019-05-07T17:33:23.609Z,11.77
2019-05-07T17:36:27.656Z,11.46
2019-05-07T17:39:32.126Z,11.36
2019-05-07T17:42:35.961Z,11.48
2019-05-07T17:45:39.690Z,11.32
2019-05-07T17:48:43.697Z,11.03
2019-05-07T17:51:47.431Z,10.90
2019-05-07T17:54:52.742Z,10.79
2019-05-07T17:57:56.554Z,10.81
2019-05-07T18:01:01.906Z,10.72
2019-05-07T18:04:05.652Z,10.66
2019-05-07T18:07:09.332Z,10.55
2019-05-07T18:10:13.132Z,10.40
2019-05-07T18:13:16.844Z,10.23
2019-05-07T18:16:27.643Z,10.17
2019-05-07T18:19:33.097Z,10.05
2019-05-07T18:22:37.072Z,9.96
2019-05-07T18:25:42.689Z,9.89
2019-05-07T18:28:46.199Z,9.71
2019-05-07T18:31:56.399Z,9.60
2019-05-07T18:35:02.210Z,9.48
2019-05-07T18:38:05.804Z,9.41
2019-05-07T18:41:11.978Z,9.35
2019-05-07T18:44:16.212Z,9.17
2019-05-07T18:47:22.175Z,9.05
2019-05-07T18:50:25.562Z,8.92
2019-05-07T18:53:31.673Z,8.81
2019-05-07T18:56:35.068Z,8.85
2019-05-07T18:59:38.778Z,8.73
2019-05-07T19:02:42.774Z,8.53
2019-05-07T19:05:46.706Z,8.29
2019-05-07T19:08:52.531Z,8.22
2019-05-07T19:11:56.526Z,8.31
2019-05-07T19:15:02.741Z,8.10
2019-05-07T19:18:05.879Z,7.94
2019-05-07T19:21:09.589Z,8.06
2019-05-07T19:24:13.373Z,7.86
2019-05-07T19:27:17.402Z,7.86
2019-05-07T19:30:21.929Z,7.73
2019-05-07T19:33:27.161Z,7.56
2019-05-07T19:36:32.135Z,7.64
2019-05-07T19:39:36.129Z,7.44
2019-05-07T19:42:39.928Z,7.39
2019-05-07T19:45:43.710Z,7.35
2019-05-07T19:48:47.428Z,7.28
2019-05-07T19:51:52.456Z,7.21
2019-05-07T19:55:00.836Z,7.23
2019-05-07T19:58:04.422Z,7.02
2019-05-07T20:01:09.318Z,6.94
2019-05-07T20:04:13.454Z,6.94
2019-05-07T20:07:17.281Z,6.77
2019-05-07T20:10:33.061Z,6.77
2019-05-07T20:13:36.886Z,6.80
2019-05-07T20:16:42.083Z,6.79
2019-05-07T20:19:45.810Z,6.78
2019-05-07T20:22:51.735Z,6.62
2019-05-07T20:25:55.013Z,6.70
2019-05-07T20:28:59.127Z,6.83
2019-05-07T20:32:02.843Z,6.90
2019-05-07T20:35:06.720Z,6.91
2019-05-07T20:38:10.860Z,6.88
2019-05-07T20:41:16.623Z,6.97
2019-05-07T20:44:20.025Z,6.99
2019-05-07T20:47:23.734Z,6.98
2019-05-07T20:50:27.512Z,7.07
2019-05-07T20:53:49.148Z,7.04
2019-05-07T20:57:02.278Z,7.11
2019-05-07T21:00:12.359Z,7.07
2019-05-07T21:03:23.704Z,7.15
2019-05-07T21:06:28.354Z,7.23
2019-05-07T21:09:32.787Z,7.48
2019-05-07T21:12:36.836Z,7.39
2019-05-07T21:15:41.855Z,7.17
2019-05-07T21:18:45.730Z,7.07
2019-05-07T21:21:49.451Z,6.99
2019-05-07T21:24:53.538Z,7.06
2019-05-07T21:27:57.296Z,7.05
2019-05-07T21:31:02.742Z,7.10
2019-05-07T21:34:06.690Z,7.14
2019-05-07T21:37:12.356Z,7.13
2019-05-07T21:40:15.993Z,7.14
2019-05-07T21:43:22.232Z,7.11
2019-05-07T21:46:25.529Z,7.14
2019-05-07T21:49:29.314Z,7.04
2019-05-07T21:52:35.472Z,7.03
2019-05-07T21:56:02.176Z,6.98
2019-05-07T21:59:05.801Z,6.98
2019-05-07T22:02:14.994Z,7.00
2019-05-07T22:05:18.954Z,7.09
2019-05-07T22:08:22.655Z,6.76
2019-05-07T22:11:26.384Z,6.83
2019-05-07T22:14:32.677Z,6.81
2019-05-07T22:17:35.806Z,6.64
2019-05-07T22:20:39.520Z,6.64
2019-05-07T22:23:43.229Z,6.49
2019-05-07T22:26:46.938Z,6.40
2019-05-07T22:29:52.729Z,6.51
2019-05-07T22:33:02.469Z,6.45
2019-05-07T22:36:06.278Z,6.48
2019-05-07T22:39:12.634Z,6.46
2019-05-07T22:42:15.857Z,6.34
2019-05-07T22:45:19.648Z,6.31
2019-05-07T22:48:23.357Z,6.33
2019-05-07T22:51:27.067Z,6.10
2019-05-07T22:54:31.940Z,6.08
2019-05-07T22:57:47.611Z,5.97
2019-05-07T23:00:55.752Z,6.01
2019-05-07T23:03:59.543Z,5.94
2019-05-07T23:07:03.578Z,5.79
2019-05-07T23:10:07.727Z,6.10
2019-05-07T23:13:13.027Z,5.83
2019-05-07T23:16:17.163Z,6.14
2019-05-07T23:19:22.082Z,5.82
2019-05-07T23:22:26.078Z,5.72
2019-05-07T23:25:32.159Z,5.81
2019-05-07T23:28:35.534Z,5.93
2019-05-07T23:31:39.252Z,6.02
2019-05-07T23:34:42.957Z,5.78
2019-05-07T23:37:46.955Z,5.85
2019-05-07T23:41:15.832Z,5.87
2019-05-07T23:44:20.423Z,5.81
2019-05-07T23:47:24.137Z,5.90
2019-05-07T23:50:27.934Z,5.84
2019-05-07T23:53:31.676Z,5.69
2019-05-07T23:56:35.457Z,5.65
2019-05-07T23:59:39.161Z,5.66
